Terminal Aerodrome Forecast
Issued by NWS

Home | Current Version | Previous Version | Text Only | Print | Product List | Glossary On
Versions: 1 2 3 4 5 6 7 8 9 10 11 12 13 14 15
000
FTUS46 KLOX 312349
TAFLGB
TAF
KLGB 312349Z 0100/0124 19007KT P6SM SKC
     FM010130 29008KT P6SM SKC
     FM010700 VRB04KT P6SM OVC014
     FM011200 VRB03KT P6SM OVC019
     FM011600 17006KT P6SM BKN019
     FM011800 19008KT P6SM FEW024 SCT250=

USA.gov is the U.S. government's official web portal to all federal, state and local government web resources and services.